sensor_id;sensor_type;location;lat;lon;timestamp;temperature;humidity
52656;SHT85;35474;51.032;6.998;2024-03-29T00:00:51;9.07;66.10
52656;SHT85;35474;51.032;6.998;2024-03-29T00:03:17;9.00;66.30
52656;SHT85;35474;51.032;6.998;2024-03-29T00:05:44;8.91;66.62
52656;SHT85;35474;51.032;6.998;2024-03-29T00:08:10;8.95;66.64
52656;SHT85;35474;51.032;6.998;2024-03-29T00:10:36;8.88;66.74
52656;SHT85;35474;51.032;6.998;2024-03-29T00:13:02;8.84;67.02
52656;SHT85;35474;51.032;6.998;2024-03-29T00:15:28;8.85;66.73
52656;SHT85;35474;51.032;6.998;2024-03-29T00:17:54;8.81;66.99
52656;SHT85;35474;51.032;6.998;2024-03-29T00:20:19;8.73;67.16
52656;SHT85;35474;51.032;6.998;2024-03-29T00:22:46;8.64;66.98
52656;SHT85;35474;51.032;6.998;2024-03-29T00:25:12;8.68;67.34
52656;SHT85;35474;51.032;6.998;2024-03-29T00:27:38;8.71;67.38
52656;SHT85;35474;51.032;6.998;2024-03-29T00:30:04;8.70;67.12
52656;SHT85;35474;51.032;6.998;2024-03-29T00:32:30;8.61;67.42
52656;SHT85;35474;51.032;6.998;2024-03-29T00:34:56;8.56;67.67
52656;SHT85;35474;51.032;6.998;2024-03-29T00:37:23;8.53;67.48
52656;SHT85;35474;51.032;6.998;2024-03-29T00:39:50;8.67;66.90
52656;SHT85;35474;51.032;6.998;2024-03-29T00:42:16;8.61;67.07
52656;SHT85;35474;51.032;6.998;2024-03-29T00:44:42;8.52;67.43
52656;SHT85;35474;51.032;6.998;2024-03-29T00:47:08;8.50;67.59
52656;SHT85;35474;51.032;6.998;2024-03-29T00:49:34;8.60;67.07
52656;SHT85;35474;51.032;6.998;2024-03-29T00:52:00;8.71;66.69
52656;SHT85;35474;51.032;6.998;2024-03-29T00:54:27;8.70;66.57
52656;SHT85;35474;51.032;6.998;2024-03-29T00:56:59;8.71;66.66
52656;SHT85;35474;51.032;6.998;2024-03-29T01:00:35;8.67;66.76
52656;SHT85;35474;51.032;6.998;2024-03-29T01:03:00;8.67;66.89
52656;SHT85;35474;51.032;6.998;2024-03-29T01:05:29;8.65;67.10
52656;SHT85;35474;51.032;6.998;2024-03-29T01:07:55;8.65;67.09
52656;SHT85;35474;51.032;6.998;2024-03-29T01:10:23;8.63;67.04
52656;SHT85;35474;51.032;6.998;2024-03-29T01:12:49;8.61;67.27
52656;SHT85;35474;51.032;6.998;2024-03-29T01:15:15;8.65;67.26
52656;SHT85;35474;51.032;6.998;2024-03-29T01:17:43;8.73;66.82
52656;SHT85;35474;51.032;6.998;2024-03-29T01:20:09;8.77;66.63
52656;SHT85;35474;51.032;6.998;2024-03-29T01:22:37;8.77;66.67
52656;SHT85;35474;51.032;6.998;2024-03-29T01:25:02;8.85;66.24
52656;SHT85;35474;51.032;6.998;2024-03-29T01:27:31;8.92;66.07
52656;SHT85;35474;51.032;6.998;2024-03-29T01:30:09;8.88;66.16
52656;SHT85;35474;51.032;6.998;2024-03-29T01:32:35;8.95;65.89
52656;SHT85;35474;51.032;6.998;2024-03-29T01:35:00;8.98;65.79
52656;SHT85;35474;51.032;6.998;2024-03-29T01:37:26;9.04;65.53
52656;SHT85;35474;51.032;6.998;2024-03-29T01:39:51;9.04;65.68
52656;SHT85;35474;51.032;6.998;2024-03-29T01:42:17;9.07;65.55
52656;SHT85;35474;51.032;6.998;2024-03-29T01:44:43;9.08;65.40
52656;SHT85;35474;51.032;6.998;2024-03-29T01:47:12;9.08;65.49
52656;SHT85;35474;51.032;6.998;2024-03-29T01:49:41;9.18;65.10
52656;SHT85;35474;51.032;6.998;2024-03-29T01:52:15;9.25;64.63
52656;SHT85;35474;51.032;6.998;2024-03-29T01:54:42;9.19;64.86
52656;SHT85;35474;51.032;6.998;2024-03-29T01:57:09;9.26;64.94
52656;SHT85;35474;51.032;6.998;2024-03-29T01:59:36;9.31;64.35
52656;SHT85;35474;51.032;6.998;2024-03-29T02:02:11;9.33;64.40
52656;SHT85;35474;51.032;6.998;2024-03-29T02:04:38;9.39;64.21
52656;SHT85;35474;51.032;6.998;2024-03-29T02:07:04;9.35;64.41
52656;SHT85;35474;51.032;6.998;2024-03-29T02:09:33;9.43;64.17
52656;SHT85;35474;51.032;6.998;2024-03-29T02:11:58;9.44;64.08
52656;SHT85;35474;51.032;6.998;2024-03-29T02:14:27;9.43;64.19
52656;SHT85;35474;51.032;6.998;2024-03-29T02:16:53;9.42;64.15
52656;SHT85;35474;51.032;6.998;2024-03-29T02:19:18;9.47;63.96
52656;SHT85;35474;51.032;6.998;2024-03-29T02:21:45;9.43;64.23
52656;SHT85;35474;51.032;6.998;2024-03-29T02:24:13;9.38;64.59
52656;SHT85;35474;51.032;6.998;2024-03-29T02:26:41;9.42;64.25
52656;SHT85;35474;51.032;6.998;2024-03-29T02:29:08;9.43;64.24
52656;SHT85;35474;51.032;6.998;2024-03-29T02:31:37;9.42;64.27
52656;SHT85;35474;51.032;6.998;2024-03-29T02:34:03;9.33;64.68
52656;SHT85;35474;51.032;6.998;2024-03-29T02:36:28;9.19;65.14
52656;SHT85;35474;51.032;6.998;2024-03-29T02:38:55;9.02;65.90
52656;SHT85;35474;51.032;6.998;2024-03-29T02:41:22;8.85;67.05
52656;SHT85;35474;51.032;6.998;2024-03-29T02:43:47;8.88;67.03
52656;SHT85;35474;51.032;6.998;2024-03-29T02:46:13;9.07;66.95
52656;SHT85;35474;51.032;6.998;2024-03-29T02:48:38;9.33;65.81
52656;SHT85;35474;51.032;6.998;2024-03-29T02:51:04;9.39;65.60
52656;SHT85;35474;51.032;6.998;2024-03-29T02:53:29;9.50;65.09
52656;SHT85;35474;51.032;6.998;2024-03-29T02:55:55;9.53;65.30
52656;SHT85;35474;51.032;6.998;2024-03-29T02:58:20;9.52;65.39
52656;SHT85;35474;51.032;6.998;2024-03-29T03:00:46;9.56;65.01
52656;SHT85;35474;51.032;6.998;2024-03-29T03:03:13;9.60;64.84
52656;SHT85;35474;51.032;6.998;2024-03-29T03:05:41;9.63;64.14
52656;SHT85;35474;51.032;6.998;2024-03-29T03:08:06;9.64;64.47
52656;SHT85;35474;51.032;6.998;2024-03-29T03:10:50;9.71;63.73
52656;SHT85;35474;51.032;6.998;2024-03-29T03:13:27;9.74;63.79
52656;SHT85;35474;51.032;6.998;2024-03-29T03:15:54;9.70;63.68
52656;SHT85;35474;51.032;6.998;2024-03-29T03:18:20;9.74;63.37
52656;SHT85;35474;51.032;6.998;2024-03-29T03:20:56;9.66;63.92
52656;SHT85;35474;51.032;6.998;2024-03-29T03:23:25;9.59;64.22
52656;SHT85;35474;51.032;6.998;2024-03-29T03:25:57;9.62;64.16
52656;SHT85;35474;51.032;6.998;2024-03-29T03:28:29;9.59;64.11
52656;SHT85;35474;51.032;6.998;2024-03-29T03:30:55;9.54;64.60
52656;SHT85;35474;51.032;6.998;2024-03-29T03:33:20;9.53;64.54
52656;SHT85;35474;51.032;6.998;2024-03-29T03:35:46;9.46;64.74
52656;SHT85;35474;51.032;6.998;2024-03-29T03:38:13;9.54;64.34
52656;SHT85;35474;51.032;6.998;2024-03-29T03:40:38;9.56;64.56
52656;SHT85;35474;51.032;6.998;2024-03-29T03:43:04;9.50;64.49
52656;SHT85;35474;51.032;6.998;2024-03-29T03:45:35;9.53;64.35
52656;SHT85;35474;51.032;6.998;2024-03-29T03:48:01;9.59;64.01
52656;SHT85;35474;51.032;6.998;2024-03-29T03:50:28;9.54;64.18
52656;SHT85;35474;51.032;6.998;2024-03-29T03:52:53;9.62;63.69
52656;SHT85;35474;51.032;6.998;2024-03-29T03:55:19;9.60;63.80
52656;SHT85;35474;51.032;6.998;2024-03-29T03:57:45;9.56;63.95
52656;SHT85;35474;51.032;6.998;2024-03-29T04:00:10;9.54;63.90
52656;SHT85;35474;51.032;6.998;2024-03-29T04:02:36;9.62;63.77
52656;SHT85;35474;51.032;6.998;2024-03-29T04:05:02;9.56;64.00
52656;SHT85;35474;51.032;6.998;2024-03-29T04:07:28;9.57;63.76
52656;SHT85;35474;51.032;6.998;2024-03-29T04:09:53;9.59;63.92
52656;SHT85;35474;51.032;6.998;2024-03-29T04:12:19;9.62;63.58
52656;SHT85;35474;51.032;6.998;2024-03-29T04:14:44;9.60;63.76
52656;SHT85;35474;51.032;6.998;2024-03-29T04:17:10;9.57;63.96
52656;SHT85;35474;51.032;6.998;2024-03-29T04:19:36;9.54;64.16
52656;SHT85;35474;51.032;6.998;2024-03-29T04:22:01;9.46;64.59
52656;SHT85;35474;51.032;6.998;2024-03-29T04:24:27;9.36;65.03
52656;SHT85;35474;51.032;6.998;2024-03-29T04:26:53;9.25;65.66
52656;SHT85;35474;51.032;6.998;2024-03-29T04:29:19;9.23;66.07
52656;SHT85;35474;51.032;6.998;2024-03-29T04:31:45;9.08;66.45
52656;SHT85;35474;51.032;6.998;2024-03-29T04:34:11;8.98;67.57
52656;SHT85;35474;51.032;6.998;2024-03-29T04:36:36;8.97;67.23
52656;SHT85;35474;51.032;6.998;2024-03-29T04:39:02;8.82;68.53
52656;SHT85;35474;51.032;6.998;2024-03-29T04:41:28;8.80;68.85
52656;SHT85;35474;51.032;6.998;2024-03-29T04:43:54;8.61;69.33
52656;SHT85;35474;51.032;6.998;2024-03-29T04:46:19;8.82;69.54
52656;SHT85;35474;51.032;6.998;2024-03-29T04:48:45;8.63;70.31
52656;SHT85;35474;51.032;6.998;2024-03-29T04:51:11;8.71;70.24
52656;SHT85;35474;51.032;6.998;2024-03-29T04:53:38;8.39;72.06
52656;SHT85;35474;51.032;6.998;2024-03-29T04:56:04;8.36;73.05
52656;SHT85;35474;51.032;6.998;2024-03-29T04:58:31;8.23;74.14
52656;SHT85;35474;51.032;6.998;2024-03-29T05:00:57;8.19;74.68
52656;SHT85;35474;51.032;6.998;2024-03-29T05:03:24;8.22;75.05
52656;SHT85;35474;51.032;6.998;2024-03-29T05:05:50;8.07;76.23
52656;SHT85;35474;51.032;6.998;2024-03-29T05:08:16;8.03;76.63
52656;SHT85;35474;51.032;6.998;2024-03-29T05:10:44;7.99;77.49
52656;SHT85;35474;51.032;6.998;2024-03-29T05:13:10;7.95;78.65
52656;SHT85;35474;51.032;6.998;2024-03-29T05:15:36;7.88;78.71
52656;SHT85;35474;51.032;6.998;2024-03-29T05:18:02;7.99;78.05
52656;SHT85;35474;51.032;6.998;2024-03-29T05:20:28;7.92;78.61
52656;SHT85;35474;51.032;6.998;2024-03-29T05:22:55;7.85;79.63
52656;SHT85;35474;51.032;6.998;2024-03-29T05:25:22;7.79;80.25
52656;SHT85;35474;51.032;6.998;2024-03-29T05:27:48;7.79;80.54
52656;SHT85;35474;51.032;6.998;2024-03-29T05:30:14;7.78;80.61
52656;SHT85;35474;51.032;6.998;2024-03-29T05:32:40;7.81;80.85
52656;SHT85;35474;51.032;6.998;2024-03-29T05:35:05;7.79;81.37
52656;SHT85;35474;51.032;6.998;2024-03-29T05:37:31;7.81;81.19
52656;SHT85;35474;51.032;6.998;2024-03-29T05:39:57;7.79;80.98
52656;SHT85;35474;51.032;6.998;2024-03-29T05:42:25;7.96;80.13
52656;SHT85;35474;51.032;6.998;2024-03-29T05:44:55;7.92;80.96
52656;SHT85;35474;51.032;6.998;2024-03-29T05:47:23;7.96;80.79
52656;SHT85;35474;51.032;6.998;2024-03-29T05:49:49;7.91;80.55
52656;SHT85;35474;51.032;6.998;2024-03-29T05:52:15;7.93;80.83
52656;SHT85;35474;51.032;6.998;2024-03-29T05:54:45;7.91;80.76
52656;SHT85;35474;51.032;6.998;2024-03-29T05:57:11;7.99;80.48
52656;SHT85;35474;51.032;6.998;2024-03-29T05:59:36;7.99;80.79
52656;SHT85;35474;51.032;6.998;2024-03-29T06:02:03;7.98;81.11
52656;SHT85;35474;51.032;6.998;2024-03-29T06:04:29;7.93;81.18
52656;SHT85;35474;51.032;6.998;2024-03-29T06:06:59;8.02;81.53
52656;SHT85;35474;51.032;6.998;2024-03-29T06:09:31;8.02;81.39
52656;SHT85;35474;51.032;6.998;2024-03-29T06:12:00;8.19;81.12
52656;SHT85;35474;51.032;6.998;2024-03-29T06:14:26;8.09;81.56
52656;SHT85;35474;51.032;6.998;2024-03-29T06:17:10;8.12;81.39
52656;SHT85;35474;51.032;6.998;2024-03-29T06:19:48;8.22;81.89
52656;SHT85;35474;51.032;6.998;2024-03-29T06:22:16;8.28;81.31
52656;SHT85;35474;51.032;6.998;2024-03-29T06:24:42;8.34;81.42
52656;SHT85;35474;51.032;6.998;2024-03-29T06:27:12;8.46;81.14
52656;SHT85;35474;51.032;6.998;2024-03-29T06:29:42;8.63;80.69
52656;SHT85;35474;51.032;6.998;2024-03-29T06:32:08;8.67;80.87
52656;SHT85;35474;51.032;6.998;2024-03-29T06:34:34;8.75;80.46
52656;SHT85;35474;51.032;6.998;2024-03-29T06:36:59;8.85;80.12
52656;SHT85;35474;51.032;6.998;2024-03-29T06:39:25;8.85;80.30
52656;SHT85;35474;51.032;6.998;2024-03-29T06:41:53;8.89;80.41
52656;SHT85;35474;51.032;6.998;2024-03-29T06:44:19;9.00;80.38
52656;SHT85;35474;51.032;6.998;2024-03-29T06:46:48;9.00;80.69
52656;SHT85;35474;51.032;6.998;2024-03-29T06:49:14;9.07;80.54
52656;SHT85;35474;51.032;6.998;2024-03-29T06:51:40;9.08;80.81
52656;SHT85;35474;51.032;6.998;2024-03-29T06:54:06;9.16;80.54
52656;SHT85;35474;51.032;6.998;2024-03-29T06:56:31;9.22;80.73
52656;SHT85;35474;51.032;6.998;2024-03-29T06:58:57;9.31;80.56
52656;SHT85;35474;51.032;6.998;2024-03-29T07:01:23;9.36;80.28
52656;SHT85;35474;51.032;6.998;2024-03-29T07:03:49;9.43;80.03
52656;SHT85;35474;51.032;6.998;2024-03-29T07:06:14;9.50;80.21
52656;SHT85;35474;51.032;6.998;2024-03-29T07:08:40;9.59;80.16
52656;SHT85;35474;51.032;6.998;2024-03-29T07:11:06;9.63;80.31
52656;SHT85;35474;51.032;6.998;2024-03-29T07:13:31;9.71;79.93
52656;SHT85;35474;51.032;6.998;2024-03-29T07:15:59;9.70;80.17
52656;SHT85;35474;51.032;6.998;2024-03-29T07:18:25;9.73;80.41
52656;SHT85;35474;51.032;6.998;2024-03-29T07:20:51;9.81;80.38
52656;SHT85;35474;51.032;6.998;2024-03-29T07:23:17;9.90;80.32
52656;SHT85;35474;51.032;6.998;2024-03-29T07:25:44;10.02;79.90
52656;SHT85;35474;51.032;6.998;2024-03-29T07:28:10;10.07;80.07
52656;SHT85;35474;51.032;6.998;2024-03-29T07:32:33;10.14;80.10
52656;SHT85;35474;51.032;6.998;2024-03-29T07:34:59;10.25;79.86
52656;SHT85;35474;51.032;6.998;2024-03-29T07:37:25;10.32;79.56
52656;SHT85;35474;51.032;6.998;2024-03-29T07:39:50;10.39;79.76
52656;SHT85;35474;51.032;6.998;2024-03-29T07:42:16;10.45;79.47
52656;SHT85;35474;51.032;6.998;2024-03-29T07:44:42;10.70;78.93
52656;SHT85;35474;51.032;6.998;2024-03-29T07:47:08;10.68;78.89
52656;SHT85;35474;51.032;6.998;2024-03-29T07:49:34;10.68;78.83
52656;SHT85;35474;51.032;6.998;2024-03-29T07:52:00;10.65;79.19
52656;SHT85;35474;51.032;6.998;2024-03-29T07:54:31;10.72;79.48
52656;SHT85;35474;51.032;6.998;2024-03-29T07:56:57;10.73;79.39
52656;SHT85;35474;51.032;6.998;2024-03-29T07:59:22;10.80;79.01
52656;SHT85;35474;51.032;6.998;2024-03-29T08:01:48;10.80;79.09
52656;SHT85;35474;51.032;6.998;2024-03-29T08:04:17;10.87;79.23
52656;SHT85;35474;51.032;6.998;2024-03-29T08:06:43;10.94;79.13
52656;SHT85;35474;51.032;6.998;2024-03-29T08:09:09;10.96;79.26
52656;SHT85;35474;51.032;6.998;2024-03-29T08:11:35;10.99;79.15
52656;SHT85;35474;51.032;6.998;2024-03-29T08:14:01;10.99;79.34
52656;SHT85;35474;51.032;6.998;2024-03-29T08:16:27;11.04;79.12
52656;SHT85;35474;51.032;6.998;2024-03-29T08:18:53;11.06;79.19
52656;SHT85;35474;51.032;6.998;2024-03-29T08:21:18;11.04;79.27
52656;SHT85;35474;51.032;6.998;2024-03-29T08:23:44;11.08;79.34
52656;SHT85;35474;51.032;6.998;2024-03-29T08:26:11;11.11;79.06
52656;SHT85;35474;51.032;6.998;2024-03-29T08:28:37;11.14;79.31
52656;SHT85;35474;51.032;6.998;2024-03-29T08:31:05;11.18;79.14
52656;SHT85;35474;51.032;6.998;2024-03-29T08:33:32;11.20;79.06
52656;SHT85;35474;51.032;6.998;2024-03-29T08:35:58;11.24;78.76
52656;SHT85;35474;51.032;6.998;2024-03-29T08:38:23;11.27;78.87
52656;SHT85;35474;51.032;6.998;2024-03-29T08:40:50;11.34;78.81
52656;SHT85;35474;51.032;6.998;2024-03-29T08:43:16;11.42;78.86
52656;SHT85;35474;51.032;6.998;2024-03-29T08:45:44;11.51;78.59
52656;SHT85;35474;51.032;6.998;2024-03-29T08:48:10;11.65;78.25
52656;SHT85;35474;51.032;6.998;2024-03-29T08:50:40;11.70;78.24
52656;SHT85;35474;51.032;6.998;2024-03-29T08:53:12;11.82;77.99
52656;SHT85;35474;51.032;6.998;2024-03-29T08:55:38;11.88;77.82
52656;SHT85;35474;51.032;6.998;2024-03-29T08:58:05;11.93;77.45
52656;SHT85;35474;51.032;6.998;2024-03-29T09:00:31;12.03;77.28
52656;SHT85;35474;51.032;6.998;2024-03-29T09:02:56;12.13;76.97
52656;SHT85;35474;51.032;6.998;2024-03-29T09:05:23;12.14;76.65
52656;SHT85;35474;51.032;6.998;2024-03-29T09:07:49;12.20;76.22
52656;SHT85;35474;51.032;6.998;2024-03-29T09:10:15;12.31;76.71
52656;SHT85;35474;51.032;6.998;2024-03-29T09:12:42;12.44;76.44
52656;SHT85;35474;51.032;6.998;2024-03-29T09:15:08;12.43;76.08
52656;SHT85;35474;51.032;6.998;2024-03-29T09:17:47;12.53;76.01
52656;SHT85;35474;51.032;6.998;2024-03-29T09:20:13;12.50;75.97
52656;SHT85;35474;51.032;6.998;2024-03-29T09:22:39;12.57;75.72
52656;SHT85;35474;51.032;6.998;2024-03-29T09:25:05;12.71;75.67
52656;SHT85;35474;51.032;6.998;2024-03-29T09:27:31;12.86;75.10
52656;SHT85;35474;51.032;6.998;2024-03-29T09:29:59;12.82;74.79
52656;SHT85;35474;51.032;6.998;2024-03-29T09:32:24;12.84;74.54
52656;SHT85;35474;51.032;6.998;2024-03-29T09:34:50;12.95;74.43
52656;SHT85;35474;51.032;6.998;2024-03-29T09:37:19;12.93;73.84
52656;SHT85;35474;51.032;6.998;2024-03-29T09:39:45;12.95;74.20
52656;SHT85;35474;51.032;6.998;2024-03-29T09:42:13;13.03;74.38
52656;SHT85;35474;51.032;6.998;2024-03-29T09:44:42;13.18;74.33
52656;SHT85;35474;51.032;6.998;2024-03-29T09:47:13;13.20;73.58
52656;SHT85;35474;51.032;6.998;2024-03-29T09:49:45;13.26;73.85
52656;SHT85;35474;51.032;6.998;2024-03-29T09:52:13;13.26;73.71
52656;SHT85;35474;51.032;6.998;2024-03-29T09:54:39;13.34;73.12
52656;SHT85;35474;51.032;6.998;2024-03-29T09:57:05;13.43;72.67
52656;SHT85;35474;51.032;6.998;2024-03-29T09:59:30;13.60;72.60
52656;SHT85;35474;51.032;6.998;2024-03-29T10:01:56;13.47;72.65
52656;SHT85;35474;51.032;6.998;2024-03-29T10:04:24;13.61;72.82
52656;SHT85;35474;51.032;6.998;2024-03-29T10:06:51;13.61;72.30
52656;SHT85;35474;51.032;6.998;2024-03-29T10:09:19;13.60;72.56
52656;SHT85;35474;51.032;6.998;2024-03-29T10:11:47;13.64;72.70
52656;SHT85;35474;51.032;6.998;2024-03-29T10:14:13;13.68;72.21
52656;SHT85;35474;51.032;6.998;2024-03-29T10:16:39;13.83;72.09
52656;SHT85;35474;51.032;6.998;2024-03-29T10:19:06;13.90;71.47
52656;SHT85;35474;51.032;6.998;2024-03-29T10:21:33;13.75;71.25
52656;SHT85;35474;51.032;6.998;2024-03-29T10:24:14;13.63;71.56
52656;SHT85;35474;51.032;6.998;2024-03-29T10:26:42;13.74;71.48
52656;SHT85;35474;51.032;6.998;2024-03-29T10:29:08;13.83;71.30
52656;SHT85;35474;51.032;6.998;2024-03-29T10:31:35;13.85;71.22
52656;SHT85;35474;51.032;6.998;2024-03-29T10:34:04;13.93;71.00
52656;SHT85;35474;51.032;6.998;2024-03-29T10:36:31;13.90;70.94
52656;SHT85;35474;51.032;6.998;2024-03-29T10:39:11;14.04;71.37
52656;SHT85;35474;51.032;6.998;2024-03-29T10:41:40;14.06;71.65
52656;SHT85;35474;51.032;6.998;2024-03-29T10:44:08;14.08;71.11
52656;SHT85;35474;51.032;6.998;2024-03-29T10:46:38;14.11;71.26
52656;SHT85;35474;51.032;6.998;2024-03-29T10:49:06;14.05;71.07
52656;SHT85;35474;51.032;6.998;2024-03-29T10:51:40;14.14;70.85
52656;SHT85;35474;51.032;6.998;2024-03-29T10:54:10;14.19;70.45
52656;SHT85;35474;51.032;6.998;2024-03-29T10:56:36;14.30;68.34
52656;SHT85;35474;51.032;6.998;2024-03-29T10:59:16;14.59;67.11
52656;SHT85;35474;51.032;6.998;2024-03-29T11:01:50;14.85;65.57
52656;SHT85;35474;51.032;6.998;2024-03-29T11:04:26;14.85;64.52
52656;SHT85;35474;51.032;6.998;2024-03-29T11:06:56;14.87;64.63
52656;SHT85;35474;51.032;6.998;2024-03-29T11:09:24;14.80;64.42
52656;SHT85;35474;51.032;6.998;2024-03-29T11:11:57;14.98;64.81
52656;SHT85;35474;51.032;6.998;2024-03-29T11:14:31;14.88;64.13
52656;SHT85;35474;51.032;6.998;2024-03-29T11:17:05;14.98;64.17
52656;SHT85;35474;51.032;6.998;2024-03-29T11:19:32;15.07;63.97
52656;SHT85;35474;51.032;6.998;2024-03-29T11:21:58;15.00;64.00
52656;SHT85;35474;51.032;6.998;2024-03-29T11:24:26;15.03;63.94
52656;SHT85;35474;51.032;6.998;2024-03-29T11:26:53;15.04;63.78
52656;SHT85;35474;51.032;6.998;2024-03-29T11:29:19;15.04;63.86
52656;SHT85;35474;51.032;6.998;2024-03-29T11:31:46;14.97;63.55
52656;SHT85;35474;51.032;6.998;2024-03-29T11:34:14;15.00;63.35
52656;SHT85;35474;51.032;6.998;2024-03-29T11:36:45;14.97;63.79
52656;SHT85;35474;51.032;6.998;2024-03-29T11:39:22;14.97;62.61
52656;SHT85;35474;51.032;6.998;2024-03-29T11:41:49;15.15;62.87
52656;SHT85;35474;51.032;6.998;2024-03-29T11:44:19;15.10;63.25
52656;SHT85;35474;51.032;6.998;2024-03-29T11:46:47;15.01;63.58
52656;SHT85;35474;51.032;6.998;2024-03-29T11:49:13;14.97;62.68
52656;SHT85;35474;51.032;6.998;2024-03-29T11:51:40;15.04;63.58
52656;SHT85;35474;51.032;6.998;2024-03-29T11:54:06;15.21;63.12
52656;SHT85;35474;51.032;6.998;2024-03-29T11:56:32;15.25;62.19
52656;SHT85;35474;51.032;6.998;2024-03-29T11:58:57;15.39;60.85
52656;SHT85;35474;51.032;6.998;2024-03-29T12:01:26;15.31;60.44
52656;SHT85;35474;51.032;6.998;2024-03-29T12:03:54;15.34;60.05
52656;SHT85;35474;51.032;6.998;2024-03-29T12:06:21;15.28;58.98
52656;SHT85;35474;51.032;6.998;2024-03-29T12:08:47;15.22;57.25
52656;SHT85;35474;51.032;6.998;2024-03-29T12:11:15;15.15;57.28
52656;SHT85;35474;51.032;6.998;2024-03-29T12:13:40;15.22;57.31
52656;SHT85;35474;51.032;6.998;2024-03-29T12:16:06;15.15;57.19
52656;SHT85;35474;51.032;6.998;2024-03-29T12:18:33;15.27;57.62
52656;SHT85;35474;51.032;6.998;2024-03-29T12:20:59;15.28;57.87
52656;SHT85;35474;51.032;6.998;2024-03-29T12:23:25;15.22;57.74
52656;SHT85;35474;51.032;6.998;2024-03-29T12:25:52;15.18;58.26
52656;SHT85;35474;51.032;6.998;2024-03-29T12:28:20;15.17;58.71
52656;SHT85;35474;51.032;6.998;2024-03-29T12:30:47;15.01;60.98
52656;SHT85;35474;51.032;6.998;2024-03-29T12:33:14;14.76;62.77
52656;SHT85;35474;51.032;6.998;2024-03-29T12:35:44;14.52;64.12
52656;SHT85;35474;51.032;6.998;2024-03-29T12:38:11;14.22;65.94
52656;SHT85;35474;51.032;6.998;2024-03-29T12:40:47;13.88;69.76
52656;SHT85;35474;51.032;6.998;2024-03-29T12:43:14;13.43;73.88
52656;SHT85;35474;51.032;6.998;2024-03-29T12:45:44;13.02;78.20
52656;SHT85;35474;51.032;6.998;2024-03-29T12:48:11;12.96;78.49
52656;SHT85;35474;51.032;6.998;2024-03-29T12:50:40;12.64;81.78
52656;SHT85;35474;51.032;6.998;2024-03-29T12:53:10;12.46;83.29
52656;SHT85;35474;51.032;6.998;2024-03-29T12:55:37;12.54;83.08
52656;SHT85;35474;51.032;6.998;2024-03-29T12:58:07;12.64;82.95
52656;SHT85;35474;51.032;6.998;2024-03-29T13:00:36;12.93;80.61
52656;SHT85;35474;51.032;6.998;2024-03-29T13:03:03;13.16;79.64
52656;SHT85;35474;51.032;6.998;2024-03-29T13:05:30;13.33;78.56
52656;SHT85;35474;51.032;6.998;2024-03-29T13:08:03;13.50;78.41
52656;SHT85;35474;51.032;6.998;2024-03-29T13:10:30;13.83;77.70
52656;SHT85;35474;51.032;6.998;2024-03-29T13:12:56;13.87;76.54
52656;SHT85;35474;51.032;6.998;2024-03-29T13:15:22;13.88;76.28
52656;SHT85;35474;51.032;6.998;2024-03-29T13:17:55;13.91;76.10
52656;SHT85;35474;51.032;6.998;2024-03-29T13:20:22;13.97;74.79
52656;SHT85;35474;51.032;6.998;2024-03-29T13:22:49;14.16;74.18
52656;SHT85;35474;51.032;6.998;2024-03-29T13:25:16;14.62;73.60
52656;SHT85;35474;51.032;6.998;2024-03-29T13:27:43;15.25;72.09
52656;SHT85;35474;51.032;6.998;2024-03-29T13:30:10;14.84;71.62
52656;SHT85;35474;51.032;6.998;2024-03-29T13:32:41;15.12;70.74
52656;SHT85;35474;51.032;6.998;2024-03-29T13:35:11;15.10;70.45
52656;SHT85;35474;51.032;6.998;2024-03-29T13:37:40;14.83;70.14
52656;SHT85;35474;51.032;6.998;2024-03-29T13:40:17;14.67;69.86
52656;SHT85;35474;51.032;6.998;2024-03-29T13:42:46;14.57;70.12
52656;SHT85;35474;51.032;6.998;2024-03-29T13:45:14;14.62;70.56
52656;SHT85;35474;51.032;6.998;2024-03-29T13:47:40;14.67;70.56
52656;SHT85;35474;51.032;6.998;2024-03-29T13:50:08;14.79;70.61
52656;SHT85;35474;51.032;6.998;2024-03-29T13:52:35;14.91;70.60
52656;SHT85;35474;51.032;6.998;2024-03-29T13:55:02;14.85;70.47
52656;SHT85;35474;51.032;6.998;2024-03-29T13:57:29;14.87;69.94
52656;SHT85;35474;51.032;6.998;2024-03-29T13:59:55;14.90;69.91
52656;SHT85;35474;51.032;6.998;2024-03-29T14:02:21;15.07;69.60
52656;SHT85;35474;51.032;6.998;2024-03-29T14:04:48;15.12;69.22
52656;SHT85;35474;51.032;6.998;2024-03-29T14:07:15;14.87;68.76
52656;SHT85;35474;51.032;6.998;2024-03-29T14:09:42;14.95;69.19
52656;SHT85;35474;51.032;6.998;2024-03-29T14:12:12;14.76;68.01
52656;SHT85;35474;51.032;6.998;2024-03-29T14:14:42;14.77;68.88
52656;SHT85;35474;51.032;6.998;2024-03-29T14:17:08;14.72;68.70
52656;SHT85;35474;51.032;6.998;2024-03-29T14:19:38;14.76;68.35
52656;SHT85;35474;51.032;6.998;2024-03-29T14:22:04;14.79;67.92
52656;SHT85;35474;51.032;6.998;2024-03-29T14:24:31;14.84;67.99
52656;SHT85;35474;51.032;6.998;2024-03-29T14:27:01;14.91;68.21
52656;SHT85;35474;51.032;6.998;2024-03-29T14:29:28;14.81;67.56
52656;SHT85;35474;51.032;6.998;2024-03-29T14:32:00;14.93;67.51
52656;SHT85;35474;51.032;6.998;2024-03-29T14:34:27;14.87;68.04
52656;SHT85;35474;51.032;6.998;2024-03-29T14:36:59;14.95;67.64
52656;SHT85;35474;51.032;6.998;2024-03-29T14:39:25;14.84;67.75
52656;SHT85;35474;51.032;6.998;2024-03-29T14:41:51;15.04;67.65
52656;SHT85;35474;51.032;6.998;2024-03-29T14:44:17;15.15;67.19
52656;SHT85;35474;51.032;6.998;2024-03-29T14:46:48;15.20;67.08
52656;SHT85;35474;51.032;6.998;2024-03-29T14:49:14;15.17;67.36
52656;SHT85;35474;51.032;6.998;2024-03-29T14:51:42;15.04;67.20
52656;SHT85;35474;51.032;6.998;2024-03-29T14:54:09;15.03;66.54
52656;SHT85;35474;51.032;6.998;2024-03-29T14:56:38;14.93;66.57
52656;SHT85;35474;51.032;6.998;2024-03-29T14:59:04;15.03;66.51
52656;SHT85;35474;51.032;6.998;2024-03-29T15:01:31;15.24;66.44
52656;SHT85;35474;51.032;6.998;2024-03-29T15:03:57;15.32;64.90
52656;SHT85;35474;51.032;6.998;2024-03-29T15:06:23;15.43;64.93
52656;SHT85;35474;51.032;6.998;2024-03-29T15:08:52;15.38;64.69
52656;SHT85;35474;51.032;6.998;2024-03-29T15:11:18;15.36;64.41
52656;SHT85;35474;51.032;6.998;2024-03-29T15:13:44;15.51;63.53
52656;SHT85;35474;51.032;6.998;2024-03-29T15:16:09;15.31;62.95
52656;SHT85;35474;51.032;6.998;2024-03-29T15:18:35;15.41;61.93
52656;SHT85;35474;51.032;6.998;2024-03-29T15:21:08;15.45;61.78
52656;SHT85;35474;51.032;6.998;2024-03-29T15:23:36;15.25;59.54
52656;SHT85;35474;51.032;6.998;2024-03-29T15:26:02;15.32;61.08
52656;SHT85;35474;51.032;6.998;2024-03-29T15:28:37;15.31;60.89
52656;SHT85;35474;51.032;6.998;2024-03-29T15:31:22;15.11;61.26
52656;SHT85;35474;51.032;6.998;2024-03-29T15:33:48;15.12;62.23
52656;SHT85;35474;51.032;6.998;2024-03-29T15:36:15;15.11;62.15
52656;SHT85;35474;51.032;6.998;2024-03-29T15:38:41;15.12;62.77
52656;SHT85;35474;51.032;6.998;2024-03-29T15:41:07;15.04;63.15